METAR Data
IDs: Format: Raw Decoded Include TAF

Data at: 1454 UTC 11 Dec 2018

Region: TOP
KATL 111452Z 31010KT 10SM CLR 03/M02 A3032 RMK AO2 SLP274 T00331017 53020

KBOS 111354Z 35003KT 9SM FEW050 FEW200 M02/M12 A3019 RMK AO2 SLP222 T10171122

KBWI 111354Z 00000KT 9SM FEW250 M02/M04 A3017 RMK AO2 SLP216 T10171044

KCLE 111451Z 22013G20KT 7SM SCT014 SCT200 M04/M08 A3011 RMK AO2 SLP206 T10391078 56012

KCLT 111452Z 00000KT 10SM CLR 04/M04 A3024 RMK AO2 SLP245 T00441044 51010

KCVG 111452Z 21008KT 6SM HZ FEW200 M03/M06 A3021 RMK AO2 SLP237 I3001 T10331061 58004

KDCA 111452Z 02005KT 10SM CLR 02/M04 A3020 RMK AO2 SLP224 T00221044 53001 $

KDEN 111353Z 08006KT 10SM FEW050 BKN220 M01/M18 A2999 RMK AO2 SLP151 T10061178

KDFW 111353Z 19007KT 10SM SCT250 02/M01 A3031 RMK AO2 SLP263 T00221006

KDTW 111406Z 21013KT 2SM HZ OVC013 M02/M06 A3004 RMK AO2 TWR VIS 3 T10221061

KEWR 111451Z 00000KT 10SM FEW250 01/M05 A3015 RMK AO2 SLP209 T00111050 56008 $

KFLL 111353Z 33011G20KT 10SM FEW050 FEW250 13/08 A3027 RMK AO2 SLP249 T01280083

KIAD 111452Z 00000KT 9SM FEW250 M01/M04 A3018 RMK AO2 SLP222 T10061039 53000

KIAH 111353Z 16003KT 10SM FEW250 04/03 A3043 RMK AO2 SLP305 T00390033

KJFK 111451Z 12003KT 10SM FEW030 FEW250 02/M03 A3016 RMK AO2 SLP214 T00221028 55007

KLAS 111356Z 00000KT 10SM FEW060 BKN100 OVC110 11/00 A3011 RMK AO2 SLP191 T01060000

KLAX 111353Z VRB03KT 8SM FEW009 FEW014 SCT140 BKN180 12/09 A3001 RMK AO2 SLP162 T01220094

KLGA 111451Z 06006KT 10SM FEW250 02/M04 A3015 RMK AO2 SLP208 T00171044 56009

KMCO 111353Z 31009G18KT 10SM FEW018 09/04 A3031 RMK AO2 SLP262 T00890039

KMDW 111353Z 24008KT 6SM BR FEW250 M03/M06 A3006 RMK AO2 SLP191 T10281061

KMEM 111354Z 20004KT 7SM CLR M03/M04 A3037 RMK AO2 SLP288 T10281039

KMIA 111353Z 34008G16KT 10SM FEW020 SCT300 13/08 A3028 RMK AO2 SLP254 T01330083

KMSP 111353Z 00000KT 6SM BR FEW180 BKN250 M09/M11 A3001 RMK AO2 SLP177 T10941106

KORD 111451Z 25010KT 6SM HZ BKN250 M02/M06 A3005 RMK AO2 SLP183 T10221056 51001 $

KPDX 111353Z 12009KT 10SM FEW019 OVC040 06/04 A3013 RMK AO2 SLP201 T00560044

KPHL 111354Z 34003KT 10SM FEW270 M01/M06 A3016 RMK AO2 SLP213 T10111061

KPHX 111451Z 12006KT 10SM BKN170 BKN200 15/02 A3003 RMK AO2 SLP160 T01500017 52010

KPIT 111451Z 22010G16KT 9SM SCT012 M04/M08 A3012 RMK AO2 SLP226 T10441078 58003

KSAN 111451Z VRB04KT 7SM SCT009 BKN017 BKN023 14/11 A3004 RMK AO2 SLP171 T01440111 53007

KSEA 111447Z 13010KT 3SM -RA BR FEW012 SCT024 OVC031 06/05 A2992 RMK AO2 TWR VIS 4 P0003

KSFO 111438Z 00000KT 6SM BR OVC006 09/08 A3019 RMK AO2 T00940083

KSLC 111354Z 36005KT 6SM HZ FEW010 BKN016 00/M03 A3032 RMK AO2 SLP280 T00001028

KSTL 111451Z 23008KT 10SM FEW250 02/M05 A3021 RMK AO2 SLP243 T00221050 55001

KTPA 111353Z 01008KT 10SM BKN032 BKN045 10/06 A3033 RMK AO2 SLP270 T01000061